Time;durP1;ratioP1;P1;durP2;ratioP2;P2;SDS_P1;SDS_P2;PMS_P1;PMS_P2;Temp;Humidity;BMP_temperature;BMP_pressure;BME280_temperature;BME280_humidity;BME280_pressure;Samples;Min_cycle;Max_cycle;Signal;HPM_P1;HPM_P2
2022/02/20 00:01:45;;;;;;;5.88;2.20;;;6.90;55.50;;;;;;5117268;28;20089;-37
2022/02/20 00:04:11;;;;;;;5.85;2.33;;;6.90;55.30;;;;;;5118218;28;20092;-38
2022/02/20 00:06:37;;;;;;;5.88;2.85;;;6.90;55.20;;;;;;5118198;28;20449;-37
2022/02/20 00:09:03;;;;;;;5.30;2.50;;;6.90;55.40;;;;;;5117751;28;20110;-39
2022/02/20 00:11:29;;;;;;;5.10;2.72;;;6.90;55.20;;;;;;5117832;27;20032;-38
2022/02/20 00:13:55;;;;;;;3.15;2.42;;;6.90;55.20;;;;;;5117684;28;20054;-39
2022/02/20 00:16:21;;;;;;;5.70;2.65;;;6.90;55.10;;;;;;5117828;28;20039;-37
2022/02/20 00:18:48;;;;;;;5.45;2.35;;;6.90;55.00;;;;;;5117667;28;20028;-39
2022/02/20 00:21:14;;;;;;;6.97;2.97;;;6.80;54.70;;;;;;5118312;28;20054;-37
2022/02/20 00:23:39;;;;;;;4.35;2.20;;;6.80;54.70;;;;;;5117307;28;20031;-38
2022/02/20 00:26:05;;;;;;;4.72;2.55;;;6.80;54.80;;;;;;5118138;28;20038;-39
2022/02/20 00:28:31;;;;;;;8.10;2.35;;;6.80;54.70;;;;;;5117566;28;20036;-38
2022/02/20 00:30:56;;;;;;;7.53;2.22;;;6.80;54.50;;;;;;5118120;28;20185;-39
2022/02/20 00:33:23;;;;;;;6.80;2.50;;;6.80;54.60;;;;;;5117445;27;20118;-38
2022/02/20 00:35:49;;;;;;;5.18;3.03;;;6.80;54.40;;;;;;5117972;28;20311;-42
2022/02/20 00:38:15;;;;;;;4.55;2.30;;;6.80;54.60;;;;;;5117257;28;20114;-37
2022/02/20 00:40:41;;;;;;;4.35;1.85;;;6.80;54.40;;;;;;5117581;28;20313;-37
2022/02/20 00:43:07;;;;;;;7.78;2.63;;;6.80;54.30;;;;;;5117090;28;20084;-38
2022/02/20 00:45:33;;;;;;;6.15;2.20;;;6.80;54.10;;;;;;5117715;28;20089;-37
2022/02/20 00:47:59;;;;;;;7.43;2.22;;;6.80;54.10;;;;;;5116958;28;20439;-38
2022/02/20 00:50:26;;;;;;;8.88;2.20;;;6.70;54.10;;;;;;5117621;28;20064;-37
2022/02/20 00:52:51;;;;;;;5.78;2.20;;;6.80;54.10;;;;;;5117191;28;20472;-37
2022/02/20 00:55:17;;;;;;;7.25;2.53;;;6.70;54.10;;;;;;5117360;28;20028;-38
2022/02/20 00:57:43;;;;;;;3.88;1.85;;;6.70;54.10;;;;;;5116961;28;20073;-39
2022/02/20 01:00:11;;;;;;;5.32;2.25;;;6.70;53.80;;;;;;5117309;28;20031;-37
2022/02/20 01:02:36;;;;;;;5.50;2.53;;;6.70;53.90;;;;;;5116823;28;20035;-37
2022/02/20 01:05:03;;;;;;;8.60;2.28;;;6.70;53.80;;;;;;5117307;28;20032;-38
2022/02/20 01:07:28;;;;;;;4.97;1.80;;;6.60;53.70;;;;;;5116682;28;20036;-39
2022/02/20 01:09:54;;;;;;;6.22;2.60;;;6.60;53.90;;;;;;5116994;28;20325;-37
2022/02/20 01:12:20;;;;;;;5.93;2.10;;;6.60;53.90;;;;;;5116370;28;20434;-39
2022/02/20 01:14:46;;;;;;;3.83;2.10;;;6.60;53.80;;;;;;5116652;28;20440;-39
2022/02/20 01:17:14;;;;;;;4.22;2.03;;;6.60;53.80;;;;;;5116508;28;20055;-37
2022/02/20 01:19:39;;;;;;;5.50;2.50;;;6.60;54.10;;;;;;5116940;28;20396;-39
2022/02/20 01:22:05;;;;;;;4.15;2.03;;;6.50;54.10;;;;;;5116262;28;20035;-38
2022/02/20 01:24:31;;;;;;;6.57;2.67;;;6.50;54.10;;;;;;5116876;28;20117;-38
2022/02/20 01:26:57;;;;;;;5.43;1.88;;;6.50;54.00;;;;;;5116594;28;20035;-38
2022/02/20 01:29:23;;;;;;;3.83;2.00;;;6.50;54.10;;;;;;5116739;28;20471;-37
2022/02/20 01:31:49;;;;;;;5.68;1.95;;;6.50;54.00;;;;;;5116248;28;20046;-38
2022/02/20 01:34:15;;;;;;;6.25;2.20;;;6.50;54.10;;;;;;5116860;28;20050;-37
2022/02/20 01:36:41;;;;;;;6.45;1.95;;;6.50;54.00;;;;;;5116344;28;20320;-37
2022/02/20 01:39:07;;;;;;;5.40;1.95;;;6.50;54.10;;;;;;5115501;28;20059;-39
2022/02/20 01:41:33;;;;;;;3.35;1.85;;;6.50;54.30;;;;;;5116941;28;20039;-39
2022/02/20 01:43:59;;;;;;;5.35;1.92;;;6.50;54.20;;;;;;5115990;28;20323;-37
2022/02/20 01:46:24;;;;;;;5.25;2.30;;;6.50;54.20;;;;;;5116855;28;20035;-38
2022/02/20 01:48:50;;;;;;;4.95;2.00;;;6.40;54.30;;;;;;5116481;28;20032;-37
2022/02/20 01:51:16;;;;;;;4.85;2.00;;;6.40;54.40;;;;;;5116782;28;20399;-38
2022/02/20 01:53:42;;;;;;;4.35;2.38;;;6.40;54.40;;;;;;5116122;28;20089;-38
2022/02/20 01:56:08;;;;;;;4.75;1.75;;;6.40;54.30;;;;;;5116670;28;20034;-39
2022/02/20 01:58:34;;;;;;;6.00;2.25;;;6.40;54.30;;;;;;5116147;28;20411;-37
2022/02/20 02:01:01;;;;;;;3.90;2.10;;;6.30;54.40;;;;;;5116810;28;20032;-38
2022/02/20 02:03:27;;;;;;;5.70;1.92;;;6.30;54.60;;;;;;5116255;28;20027;-37
2022/02/20 02:05:52;;;;;;;7.18;2.42;;;6.30;54.80;;;;;;5116606;28;20032;-37
2022/02/20 02:08:18;;;;;;;6.90;2.30;;;6.30;54.80;;;;;;5116262;28;20418;-37
2022/02/20 02:10:45;;;;;;;4.47;1.88;;;6.30;55.10;;;;;;5116601;28;20063;-38
2022/02/20 02:13:11;;;;;;;5.15;2.00;;;6.30;55.70;;;;;;5116021;28;20048;-39
2022/02/20 02:15:57;;;;;;;4.25;2.28;;;6.20;55.10;;;;;;5116588;28;20102;-37
2022/02/20 02:18:22;;;;;;;6.20;2.20;;;6.20;55.20;;;;;;5115575;28;20036;-37
2022/02/20 02:20:48;;;;;;;5.78;2.20;;;6.20;55.40;;;;;;5116431;28;20032;-37
2022/02/20 02:23:19;;;;;;;5.90;2.10;;;6.20;55.60;;;;;;5116331;28;20035;-38
2022/02/20 02:25:49;;;;;;;3.45;1.90;;;6.20;55.70;;;;;;5120019;28;20046;-37
2022/02/20 02:28:15;;;;;;;5.72;2.08;;;6.10;55.80;;;;;;5119866;28;20028;-38
2022/02/20 02:30:41;;;;;;;4.80;2.13;;;6.10;55.90;;;;;;5120486;28;20434;-37
2022/02/20 02:33:06;;;;;;;7.60;2.70;;;6.10;56.00;;;;;;5119619;28;20032;-37
2022/02/20 02:35:32;;;;;;;4.93;2.30;;;6.10;56.10;;;;;;5120299;28;20106;-39
2022/02/20 02:37:59;;;;;;;5.10;2.17;;;6.10;56.10;;;;;;5119676;28;20031;-37
2022/02/20 02:40:25;;;;;;;5.78;2.47;;;6.00;56.10;;;;;;5119953;28;20036;-37
2022/02/20 02:42:50;;;;;;;3.58;1.60;;;6.00;56.30;;;;;;5119659;28;20054;-37
2022/02/20 02:45:16;;;;;;;5.25;1.95;;;6.00;56.40;;;;;;5119904;28;20127;-37
2022/02/20 02:47:46;;;;;;;5.88;2.35;;;6.00;56.50;;;;;;5119261;28;20032;-40
2022/02/20 02:50:12;;;;;;;5.63;2.30;;;6.00;56.50;;;;;;5119940;28;20042;-38
2022/02/20 02:52:37;;;;;;;5.38;2.50;;;6.00;56.60;;;;;;5119627;28;20035;-37
2022/02/20 02:55:04;;;;;;;6.13;2.10;;;6.00;56.60;;;;;;5119481;28;20024;-37
2022/02/20 02:57:29;;;;;;;4.85;2.20;;;6.00;56.80;;;;;;5119138;28;20484;-39
2022/02/20 02:59:56;;;;;;;5.72;2.10;;;6.00;56.90;;;;;;5119633;28;20032;-37
2022/02/20 03:02:21;;;;;;;5.63;2.28;;;5.90;56.90;;;;;;5118966;28;20036;-38
2022/02/20 03:04:47;;;;;;;4.70;2.60;;;5.90;56.90;;;;;;5119536;28;20031;-37
2022/02/20 03:07:14;;;;;;;6.45;2.33;;;5.90;57.00;;;;;;5119129;28;20092;-37
2022/02/20 03:09:40;;;;;;;3.70;2.10;;;5.90;57.10;;;;;;5119652;28;20327;-37
2022/02/20 03:12:08;;;;;;;6.07;2.45;;;5.90;57.20;;;;;;5119234;28;20316;-37
2022/02/20 03:14:34;;;;;;;5.07;2.33;;;5.90;57.20;;;;;;5119160;28;20059;-38
2022/02/20 03:17:00;;;;;;;4.35;2.38;;;5.90;57.20;;;;;;5118737;28;20080;-39
2022/02/20 03:19:25;;;;;;;7.05;2.72;;;5.90;57.20;;;;;;5119391;28;20036;-37
2022/02/20 03:21:51;;;;;;;7.05;2.38;;;5.90;57.20;;;;;;5119065;28;20027;-39
2022/02/20 03:24:17;;;;;;;3.22;2.00;;;5.90;57.40;;;;;;5118896;28;20031;-38
2022/02/20 03:26:42;;;;;;;7.45;2.20;;;5.80;57.40;;;;;;5119013;28;20028;-37
2022/02/20 03:29:08;;;;;;;4.40;2.60;;;5.80;57.50;;;;;;5118918;28;20030;-38
2022/02/20 03:31:34;;;;;;;8.70;2.42;;;5.80;58.10;;;;;;5119016;28;20073;-37
2022/02/20 03:33:59;;;;;;;6.95;2.33;;;5.80;57.50;;;;;;5118418;28;20485;-38
2022/02/20 03:36:25;;;;;;;6.10;2.38;;;5.70;57.60;;;;;;5118776;28;20036;-38
2022/02/20 03:38:51;;;;;;;6.60;2.33;;;5.70;57.70;;;;;;5118534;28;20027;-37
2022/02/20 03:41:17;;;;;;;5.43;2.25;;;5.70;57.80;;;;;;5119101;28;20388;-37
2022/02/20 03:43:43;;;;;;;6.70;2.70;;;5.70;57.90;;;;;;5118360;27;20032;-38
2022/02/20 03:46:09;;;;;;;5.05;2.53;;;5.70;57.90;;;;;;5118888;28;20040;-37
2022/02/20 03:48:35;;;;;;;12.75;2.60;;;5.70;57.90;;;;;;5118233;28;20059;-37
2022/02/20 03:51:02;;;;;;;4.60;2.28;;;5.60;58.00;;;;;;5118796;27;20420;-39
2022/02/20 03:53:28;;;;;;;7.47;2.30;;;5.60;58.60;;;;;;5118184;28;20319;-38
2022/02/20 03:55:54;;;;;;;5.75;2.60;;;5.60;58.20;;;;;;5118204;28;20032;-37
2022/02/20 03:58:19;;;;;;;4.28;2.30;;;5.60;58.30;;;;;;5118125;28;20026;-39
2022/02/20 04:00:46;;;;;;;5.95;2.58;;;5.50;58.30;;;;;;5118170;28;20346;-37
2022/02/20 04:03:12;;;;;;;10.95;2.33;;;5.50;58.40;;;;;;5117901;28;20073;-39
2022/02/20 04:05:38;;;;;;;6.40;2.47;;;5.50;58.40;;;;;;5118455;28;20108;-37
2022/02/20 04:08:04;;;;;;;6.75;2.55;;;5.50;58.50;;;;;;5117712;28;20027;-38
2022/02/20 04:10:29;;;;;;;6.90;2.75;;;5.40;58.50;;;;;;5118265;28;20039;-37
2022/02/20 04:12:56;;;;;;;7.05;2.60;;;5.40;58.60;;;;;;5116525;28;20031;-37
2022/02/20 04:15:22;;;;;;;6.22;2.65;;;5.40;58.80;;;;;;5118353;28;20319;-39
2022/02/20 04:17:49;;;;;;;5.38;2.20;;;5.40;58.80;;;;;;5117596;28;20024;-37
2022/02/20 04:20:16;;;;;;;6.82;2.60;;;5.40;58.90;;;;;;5118105;28;20110;-37
2022/02/20 04:22:44;;;;;;;9.40;2.50;;;5.40;58.90;;;;;;5117652;28;20031;-37
2022/02/20 04:25:10;;;;;;;6.35;2.25;;;5.40;59.00;;;;;;5118005;28;20023;-39
2022/02/20 04:27:36;;;;;;;4.40;2.42;;;5.40;59.10;;;;;;5117371;28;20038;-40
2022/02/20 04:30:02;;;;;;;5.18;2.00;;;5.40;59.10;;;;;;5117773;28;20372;-38
2022/02/20 04:32:28;;;;;;;5.22;2.40;;;5.40;59.10;;;;;;5117526;28;20328;-39
2022/02/20 04:34:54;;;;;;;7.97;2.53;;;5.40;59.20;;;;;;5116407;28;20024;-38
2022/02/20 04:37:19;;;;;;;4.85;2.92;;;5.40;59.80;;;;;;5117151;28;20031;-39
2022/02/20 04:39:45;;;;;;;8.07;2.25;;;5.30;59.20;;;;;;5117713;28;20027;-37
2022/02/20 04:42:11;;;;;;;11.32;2.90;;;5.30;59.30;;;;;;5117426;28;20035;-38
2022/02/20 04:44:36;;;;;;;10.25;2.60;;;5.30;59.40;;;;;;5117434;28;20027;-37
2022/02/20 04:47:02;;;;;;;5.93;2.60;;;5.30;59.40;;;;;;5116375;28;20028;-38
2022/02/20 04:49:28;;;;;;;6.18;2.63;;;5.30;59.40;;;;;;5117592;28;20027;-39
2022/02/20 04:51:54;;;;;;;8.52;2.88;;;5.30;59.50;;;;;;5116976;28;20038;-39
2022/02/20 04:54:19;;;;;;;7.03;2.40;;;5.30;59.70;;;;;;5117106;28;20027;-47
2022/02/20 04:56:46;;;;;;;10.05;3.20;;;5.30;59.70;;;;;;5116868;28;20032;-38
2022/02/20 04:59:13;;;;;;;7.07;2.97;;;5.30;60.40;;;;;;5117172;28;20120;-37
2022/02/20 05:01:39;;;;;;;5.03;2.47;;;5.30;59.80;;;;;;5117094;28;20024;-37
2022/02/20 05:04:06;;;;;;;4.95;2.53;;;5.20;59.80;;;;;;5117173;28;20347;-37
2022/02/20 05:06:32;;;;;;;6.47;2.53;;;5.20;59.70;;;;;;5117286;28;20319;-37
2022/02/20 05:08:58;;;;;;;5.70;2.40;;;5.20;59.80;;;;;;5116889;28;20069;-38
2022/02/20 05:11:24;;;;;;;5.20;2.42;;;5.20;60.00;;;;;;5117150;28;20031;-39
2022/02/20 05:13:54;;;;;;;14.13;6.20;;;5.20;60.00;;;;;;5116507;28;20061;-38
2022/02/20 05:16:21;;;;;;;4.17;2.30;;;5.20;60.00;;;;;;5116788;28;20027;-39
2022/02/20 05:18:46;;;;;;;7.57;2.75;;;5.20;60.10;;;;;;5116802;28;20408;-39
2022/02/20 05:21:12;;;;;;;8.82;3.30;;;5.20;60.10;;;;;;5117153;28;20066;-39
2022/02/20 05:23:38;;;;;;;5.13;2.78;;;5.20;60.30;;;;;;5116315;28;20027;-37
2022/02/20 05:26:04;;;;;;;10.00;6.25;;;5.20;60.30;;;;;;5117034;28;20032;-37
2022/02/20 05:28:29;;;;;;;7.60;2.63;;;5.20;60.40;;;;;;5116413;28;20030;-37
2022/02/20 05:30:55;;;;;;;6.55;2.83;;;5.20;60.30;;;;;;5116820;28;20046;-39
2022/02/20 05:33:21;;;;;;;5.88;2.50;;;5.20;60.30;;;;;;5116275;28;20024;-38
2022/02/20 05:35:46;;;;;;;9.77;4.20;;;5.20;60.30;;;;;;5116793;28;20027;-39
2022/02/20 05:38:12;;;;;;;7.40;3.30;;;5.20;60.40;;;;;;5115981;28;20316;-37
2022/02/20 05:40:38;;;;;;;8.95;3.78;;;5.30;60.40;;;;;;5116708;28;20031;-37
2022/02/20 05:43:05;;;;;;;6.45;3.13;;;5.30;60.50;;;;;;5115967;28;20099;-39
2022/02/20 05:45:31;;;;;;;7.85;2.92;;;5.30;60.50;;;;;;5116685;28;20036;-38
2022/02/20 05:47:58;;;;;;;7.30;3.95;;;5.30;60.40;;;;;;5115981;28;20522;-39
2022/02/20 05:50:24;;;;;;;5.55;2.72;;;5.40;60.40;;;;;;5116682;28;20028;-37
2022/02/20 05:52:49;;;;;;;6.38;3.33;;;5.40;60.30;;;;;;5116133;28;20054;-39
2022/02/20 05:55:16;;;;;;;5.70;2.80;;;5.40;60.30;;;;;;5116565;28;20034;-38
2022/02/20 05:57:42;;;;;;;6.05;2.80;;;5.50;60.30;;;;;;5116278;28;20355;-38
2022/02/20 06:00:09;;;;;;;6.13;2.70;;;5.50;60.30;;;;;;5120340;28;20032;-39
2022/02/20 06:02:35;;;;;;;5.35;2.97;;;5.50;60.20;;;;;;5120246;28;20073;-37
2022/02/20 06:05:01;;;;;;;8.98;3.20;;;5.60;60.10;;;;;;5120412;28;20434;-38
2022/02/20 06:07:27;;;;;;;6.90;3.45;;;5.60;60.20;;;;;;5120086;28;20032;-39
2022/02/20 06:09:52;;;;;;;10.48;3.20;;;5.70;60.20;;;;;;5120349;28;20032;-39
2022/02/20 06:12:18;;;;;;;6.88;2.80;;;5.70;60.10;;;;;;5119901;28;20027;-39
2022/02/20 06:14:43;;;;;;;8.00;3.30;;;5.70;59.90;;;;;;5120167;28;20062;-37
2022/02/20 06:17:09;;;;;;;14.68;4.25;;;5.80;60.10;;;;;;5119777;28;20030;-38
2022/02/20 06:19:35;;;;;;;8.73;3.25;;;5.80;60.00;;;;;;5120338;27;20047;-38
2022/02/20 06:22:01;;;;;;;8.25;3.25;;;5.90;60.00;;;;;;5119687;28;20039;-38
2022/02/20 06:24:26;;;;;;;7.90;3.03;;;6.00;59.90;;;;;;5120393;28;20059;-37
2022/02/20 06:26:52;;;;;;;11.07;3.38;;;6.00;59.80;;;;;;5119822;28;20023;-38
2022/02/20 06:29:18;;;;;;;8.88;3.35;;;6.10;59.50;;;;;;5120298;28;20328;-38
2022/02/20 06:31:44;;;;;;;6.70;3.05;;;6.10;59.50;;;;;;5119843;28;20049;-37
2022/02/20 06:34:09;;;;;;;14.73;4.63;;;6.10;59.50;;;;;;5119694;28;20073;-38
2022/02/20 06:36:35;;;;;;;6.00;2.90;;;6.20;59.60;;;;;;5119691;28;20431;-38
2022/02/20 06:39:03;;;;;;;9.68;2.83;;;6.20;59.40;;;;;;5119437;28;20107;-38
2022/02/20 06:41:29;;;;;;;9.00;3.42;;;6.30;59.10;;;;;;5119727;28;20027;-39
2022/02/20 06:43:55;;;;;;;5.72;2.78;;;6.40;59.10;;;;;;5118458;28;20315;-40
2022/02/20 06:46:20;;;;;;;8.57;3.00;;;6.40;58.80;;;;;;5119600;28;20038;-39
2022/02/20 06:48:46;;;;;;;6.63;2.92;;;6.40;58.70;;;;;;5119231;28;20038;-38
2022/02/20 06:51:11;;;;;;;6.80;2.95;;;6.50;58.50;;;;;;5119762;28;20039;-39
2022/02/20 06:53:37;;;;;;;7.22;2.75;;;6.50;58.50;;;;;;5119154;28;20031;-39
2022/02/20 06:56:03;;;;;;;5.45;2.75;;;6.50;58.30;;;;;;5119319;28;20035;-40
2022/02/20 06:58:29;;;;;;;6.43;2.67;;;6.60;58.50;;;;;;5119224;28;20028;-39
2022/02/20 07:00:54;;;;;;;10.95;3.80;;;6.60;58.90;;;;;;5119486;28;20372;-38
2022/02/20 07:03:20;;;;;;;6.43;3.05;;;6.60;58.70;;;;;;5118753;28;20039;-40
2022/02/20 07:05:46;;;;;;;5.03;2.50;;;6.70;58.20;;;;;;5119588;28;20040;-39
2022/02/20 07:08:11;;;;;;;5.53;2.55;;;6.70;58.10;;;;;;5118732;28;20346;-39
2022/02/20 07:10:37;;;;;;;5.25;2.80;;;6.80;58.10;;;;;;5118847;28;20035;-39
2022/02/20 07:13:02;;;;;;;6.93;2.53;;;6.80;57.90;;;;;;5118509;28;20040;-39
2022/02/20 07:15:28;;;;;;;6.72;2.80;;;6.90;57.70;;;;;;5119187;28;20320;-40
2022/02/20 07:17:54;;;;;;;6.20;2.72;;;6.90;57.60;;;;;;5118688;28;20047;-39
2022/02/20 07:20:20;;;;;;;4.80;2.47;;;7.00;57.60;;;;;;5118808;28;20315;-38
2022/02/20 07:22:45;;;;;;;6.70;2.58;;;7.00;58.00;;;;;;5118572;28;20035;-40
2022/02/20 07:25:12;;;;;;;7.18;2.65;;;7.00;57.20;;;;;;5118409;28;20035;-38
2022/02/20 07:27:43;;;;;;;6.53;2.60;;;7.10;57.20;;;;;;5118188;28;20032;-39
2022/02/20 07:30:10;;;;;;;4.00;2.42;;;7.10;57.40;;;;;;5118773;28;20422;-38
2022/02/20 07:32:36;;;;;;;4.72;2.75;;;7.10;56.90;;;;;;5118227;28;20039;-38
2022/02/20 07:35:03;;;;;;;7.97;3.42;;;7.10;56.90;;;;;;5118675;28;20399;-39
2022/02/20 07:37:29;;;;;;;5.63;2.58;;;7.10;56.90;;;;;;5117314;28;20035;-39
2022/02/20 07:39:56;;;;;;;7.43;2.75;;;7.10;57.00;;;;;;5118713;28;20297;-38
2022/02/20 07:42:22;;;;;;;9.00;2.60;;;7.20;56.90;;;;;;5118312;28;20465;-38
2022/02/20 07:44:48;;;;;;;7.00;3.00;;;7.20;56.90;;;;;;5118273;28;20027;-38
2022/02/20 07:47:15;;;;;;;7.30;2.90;;;7.20;56.90;;;;;;5118466;28;20088;-39
2022/02/20 07:49:41;;;;;;;7.63;2.80;;;7.20;56.70;;;;;;5118371;28;20030;-39
2022/02/20 07:52:06;;;;;;;6.40;2.67;;;7.20;56.70;;;;;;5118154;28;20246;-37
2022/02/20 07:54:32;;;;;;;10.27;3.22;;;7.30;56.70;;;;;;5118559;28;20032;-38
2022/02/20 07:56:58;;;;;;;5.93;2.95;;;7.40;56.70;;;;;;5116615;28;20079;-38
2022/02/20 07:59:25;;;;;;;8.35;3.00;;;7.40;56.50;;;;;;5117884;28;20052;-40
2022/02/20 08:01:52;;;;;;;8.38;2.80;;;7.40;56.60;;;;;;5116261;28;20031;-38
2022/02/20 08:04:18;;;;;;;8.13;2.83;;;7.50;56.40;;;;;;5117825;28;20035;-38
2022/02/20 08:06:44;;;;;;;5.13;2.53;;;7.50;56.30;;;;;;5117536;28;20031;-37
2022/02/20 08:09:10;;;;;;;13.02;2.88;;;7.50;56.20;;;;;;5117778;28;20023;-37
2022/02/20 08:11:35;;;;;;;5.90;2.72;;;7.50;56.30;;;;;;5116863;28;20411;-40
2022/02/20 08:14:02;;;;;;;11.25;3.50;;;7.60;56.30;;;;;;5115568;28;20043;-37
2022/02/20 08:16:28;;;;;;;6.55;2.63;;;7.60;56.50;;;;;;5102203;28;20031;-40
2022/02/20 08:18:54;;;;;;;7.13;3.00;;;7.60;56.10;;;;;;5097109;28;20024;-38
2022/02/20 08:21:20;;;;;;;15.88;3.53;;;7.70;56.00;;;;;;5095844;28;20035;-40
2022/02/20 08:23:46;;;;;;;11.23;3.22;;;7.70;56.30;;;;;;5097074;28;20036;-39
2022/02/20 08:26:12;;;;;;;6.85;2.50;;;7.80;56.20;;;;;;5097215;28;20315;-40
2022/02/20 08:28:38;;;;;;;4.90;2.45;;;7.80;56.00;;;;;;5096776;28;20337;-40
2022/02/20 08:31:04;;;;;;;11.75;2.65;;;7.80;56.00;;;;;;5096934;28;20035;-40
2022/02/20 08:33:30;;;;;;;6.22;2.60;;;7.80;56.30;;;;;;5096710;28;20159;-40
2022/02/20 08:35:56;;;;;;;6.97;2.35;;;7.90;55.80;;;;;;5096887;28;20035;-38
2022/02/20 08:38:21;;;;;;;6.45;2.60;;;8.00;56.00;;;;;;5096444;28;20024;-38
2022/02/20 08:40:51;;;;;;;6.50;2.67;;;8.00;56.00;;;;;;5096969;28;20476;-40
2022/02/20 08:43:18;;;;;;;11.50;2.88;;;8.10;55.80;;;;;;5096167;28;20028;-40
2022/02/20 08:45:46;;;;;;;7.75;2.80;;;8.10;55.50;;;;;;5096617;28;20063;-37
2022/02/20 08:48:12;;;;;;;5.78;2.50;;;8.20;55.70;;;;;;5096522;28;20060;-40
2022/02/20 08:50:42;;;;;;;8.85;3.00;;;8.20;55.40;;;;;;5096452;28;20051;-38
2022/02/20 08:53:08;;;;;;;6.28;2.92;;;8.30;54.80;;;;;;5095845;28;20028;-38
2022/02/20 08:55:34;;;;;;;6.85;3.40;;;8.30;54.50;;;;;;5096873;28;20024;-40
2022/02/20 08:58:00;;;;;;;6.68;2.47;;;8.30;54.60;;;;;;5096490;28;20031;-37
2022/02/20 09:00:25;;;;;;;9.82;3.10;;;8.30;54.80;;;;;;5096516;28;20024;-38
2022/02/20 09:02:51;;;;;;;8.52;3.08;;;8.30;54.60;;;;;;5096027;28;20028;-40
2022/02/20 09:05:17;;;;;;;6.00;2.25;;;8.30;54.60;;;;;;5096644;28;20477;-39
2022/02/20 09:07:43;;;;;;;9.82;3.22;;;8.40;54.60;;;;;;5095816;28;20348;-39
2022/02/20 09:10:09;;;;;;;6.78;2.70;;;8.40;54.40;;;;;;5096014;28;20028;-38
2022/02/20 09:12:36;;;;;;;8.48;2.58;;;8.40;54.20;;;;;;5095989;28;20032;-38
2022/02/20 09:15:04;;;;;;;7.63;2.53;;;8.40;54.20;;;;;;5096103;28;20097;-38
2022/02/20 09:17:30;;;;;;;6.90;2.88;;;8.40;54.00;;;;;;5095595;28;20412;-40
2022/02/20 09:19:55;;;;;;;9.38;2.92;;;8.40;54.00;;;;;;5094797;28;20040;-38
2022/02/20 09:22:21;;;;;;;8.98;2.90;;;8.40;54.20;;;;;;5095989;28;20360;-39
2022/02/20 09:24:47;;;;;;;6.35;2.70;;;8.40;54.30;;;;;;5095643;28;20071;-40
2022/02/20 09:27:13;;;;;;;9.35;3.40;;;8.50;54.50;;;;;;5095662;28;20035;-38
2022/02/20 09:29:38;;;;;;;10.90;4.38;;;8.50;54.50;;;;;;5096585;28;20032;-38
2022/02/20 09:32:05;;;;;;;9.65;3.70;;;8.60;54.40;;;;;;5095262;28;20029;-38
2022/02/20 09:34:30;;;;;;;10.27;3.20;;;8.70;54.00;;;;;;5095855;28;20032;-38
2022/02/20 09:36:56;;;;;;;6.10;2.65;;;8.70;53.90;;;;;;5095638;28;20449;-40
2022/02/20 09:39:22;;;;;;;9.90;3.38;;;8.70;53.80;;;;;;5095841;28;20449;-40
2022/02/20 09:41:47;;;;;;;6.95;2.50;;;8.70;53.80;;;;;;5095344;28;20028;-40
2022/02/20 09:44:14;;;;;;;7.65;2.40;;;8.80;53.30;;;;;;5095889;28;20038;-41
2022/02/20 09:46:44;;;;;;;7.72;3.90;;;8.80;53.10;;;;;;5095243;28;20408;-40
2022/02/20 09:49:11;;;;;;;7.15;2.47;;;8.80;53.40;;;;;;5095457;28;20107;-38
2022/02/20 09:51:37;;;;;;;8.70;3.75;;;8.90;53.20;;;;;;5095607;28;20027;-38
2022/02/20 09:54:03;;;;;;;8.63;2.65;;;8.90;53.00;;;;;;5095303;28;20028;-38
2022/02/20 09:56:29;;;;;;;7.13;2.40;;;8.90;53.00;;;;;;5093090;28;20478;-38
2022/02/20 09:58:55;;;;;;;9.18;3.35;;;9.00;52.60;;;;;;5095589;28;20028;-41
2022/02/20 10:01:21;;;;;;;7.70;2.20;;;9.00;52.40;;;;;;5095566;28;20354;-38
2022/02/20 10:03:48;;;;;;;8.10;2.72;;;9.00;52.10;;;;;;5095318;28;20024;-39
2022/02/20 10:06:23;;;;;;;5.32;2.53;;;9.10;52.00;;;;;;5095699;28;20093;-40
2022/02/20 10:08:52;;;;;;;8.07;2.70;;;9.10;52.00;;;;;;5095511;28;20051;-40
2022/02/20 10:11:28;;;;;;;6.82;2.80;;;9.20;52.20;;;;;;5095858;28;20040;-38
2022/02/20 10:14:18;;;;;;;4.70;2.60;;;9.20;52.10;;;;;;5095086;28;20043;-38
2022/02/20 10:16:43;;;;;;;8.23;2.30;;;9.30;52.10;;;;;;5087405;28;20339;-40
2022/02/20 10:19:11;;;;;;;6.60;2.42;;;9.40;52.10;;;;;;5095058;28;20095;-40
2022/02/20 10:21:37;;;;;;;7.15;3.35;;;9.50;51.40;;;;;;5095123;28;20032;-38
2022/02/20 10:24:11;;;;;;;4.18;2.33;;;9.50;51.20;;;;;;5095087;28;20301;-38
2022/02/20 10:26:48;;;;;;;7.30;3.05;;;9.60;51.00;;;;;;5095422;28;20028;-40
2022/02/20 10:29:21;;;;;;;6.57;2.50;;;9.60;51.20;;;;;;5094914;28;20032;-39
2022/02/20 10:31:50;;;;;;;13.55;3.35;;;9.70;51.50;;;;;;5095112;28;20357;-38
2022/02/20 10:34:17;;;;;;;7.13;2.42;;;9.70;51.40;;;;;;5094872;28;20020;-39
2022/02/20 10:36:49;;;;;;;9.98;4.88;;;9.80;50.90;;;;;;5110757;28;20046;-40
2022/02/20 10:39:26;;;;;;;9.55;3.50;;;9.80;51.50;;;;;;5115346;28;20070;-40
2022/02/20 10:41:54;;;;;;;3.83;1.90;;;9.90;50.80;;;;;;5115183;28;20040;-39
2022/02/20 10:44:20;;;;;;;7.32;2.28;;;9.90;50.60;;;;;;5116081;28;20039;-38
2022/02/20 10:46:46;;;;;;;4.35;2.40;;;10.00;50.40;;;;;;5119247;28;20031;-40
2022/02/20 10:49:25;;;;;;;14.10;6.50;;;10.10;50.10;;;;;;5119317;28;20026;-38
2022/02/20 10:51:51;;;;;;;5.28;2.55;;;10.10;49.70;;;;;;5118473;28;20023;-38
2022/02/20 10:54:17;;;;;;;7.60;2.92;;;10.20;49.70;;;;;;5118886;28;20106;-38
2022/02/20 10:56:45;;;;;;;8.93;2.90;;;10.20;49.50;;;;;;5117441;28;20055;-40
2022/02/20 10:59:11;;;;;;;5.82;2.55;;;10.10;49.90;;;;;;5119023;28;20027;-40
2022/02/20 11:01:36;;;;;;;5.65;2.50;;;10.10;49.40;;;;;;5118908;28;20324;-40
2022/02/20 11:04:07;;;;;;;4.00;2.05;;;10.10;49.20;;;;;;5118742;28;20059;-38
2022/02/20 11:06:33;;;;;;;16.50;4.07;;;10.20;49.30;;;;;;5119000;28;20084;-40
2022/02/20 11:09:01;;;;;;;7.50;2.65;;;10.20;49.60;;;;;;5118517;28;20028;-40
2022/02/20 11:11:42;;;;;;;7.28;3.28;;;10.20;49.20;;;;;;5118399;28;20415;-41
2022/02/20 11:14:11;;;;;;;8.68;3.30;;;10.30;48.90;;;;;;5118363;28;20389;-40
2022/02/20 11:16:48;;;;;;;4.82;2.58;;;10.30;48.80;;;;;;5118391;28;20043;-40
2022/02/20 11:19:35;;;;;;;7.20;2.50;;;10.40;48.50;;;;;;5118351;28;20373;-40
2022/02/20 11:22:02;;;;;;;9.65;2.85;;;10.50;48.50;;;;;;5118109;28;20115;-38
2022/02/20 11:24:30;;;;;;;6.45;2.42;;;10.50;48.60;;;;;;5117487;28;20107;-40
2022/02/20 11:27:00;;;;;;;16.42;3.83;;;10.60;48.60;;;;;;5117952;28;20035;-40
2022/02/20 11:29:26;;;;;;;5.18;2.42;;;10.70;48.70;;;;;;5118176;28;20340;-38
2022/02/20 11:31:52;;;;;;;8.98;2.78;;;10.70;48.10;;;;;;5118200;28;20036;-40
2022/02/20 11:34:19;;;;;;;7.22;2.40;;;10.80;47.40;;;;;;5118076;28;20085;-41
2022/02/20 11:36:53;;;;;;;7.05;2.28;;;10.80;47.00;;;;;;5118357;28;20427;-38
2022/02/20 11:39:19;;;;;;;3.65;2.00;;;10.90;46.70;;;;;;5118449;28;20035;-39
2022/02/20 11:42:11;;;;;;;2.55;1.88;;;10.90;46.70;;;;;;5117829;28;20028;-39
2022/02/20 11:44:47;;;;;;;6.63;2.47;;;10.90;46.10;;;;;;5118223;28;20080;-40
2022/02/20 11:47:35;;;;;;;9.52;2.80;;;10.90;46.70;;;;;;5117773;28;20031;-40
2022/02/20 11:50:27;;;;;;;10.25;3.63;;;11.00;46.70;;;;;;5117717;28;20031;-38
2022/02/20 11:53:03;;;;;;;6.40;2.63;;;11.00;46.60;;;;;;5113871;28;20047;-39
2022/02/20 11:55:41;;;;;;;6.03;2.60;;;10.90;46.10;;;;;;5118008;28;20323;-38
2022/02/20 11:58:13;;;;;;;9.98;4.15;;;10.90;45.90;;;;;;5117791;28;20103;-40
2022/02/20 12:01:02;;;;;;;6.70;3.20;;;10.90;46.10;;;;;;5118016;28;20024;-39
2022/02/20 12:03:46;;;;;;;5.85;2.58;;;10.90;46.70;;;;;;5116835;28;20419;-41
2022/02/20 12:06:17;;;;;;;9.20;2.95;;;10.90;46.90;;;;;;5117557;28;20218;-40
2022/02/20 12:08:50;;;;;;;21.45;4.13;;;11.00;46.60;;;;;;5117672;28;20419;-38
2022/02/20 12:11:25;;;;;;;6.47;3.20;;;11.00;46.40;;;;;;5118010;28;20127;-41
2022/02/20 12:14:24;;;;;;;5.95;2.47;;;11.10;46.30;;;;;;5117197;28;20122;-39
2022/02/20 12:17:00;;;;;;;7.32;2.70;;;11.20;46.10;;;;;;5102511;28;20059;-38
2022/02/20 12:19:44;;;;;;;8.00;3.20;;;11.30;46.10;;;;;;5117595;28;20036;-40
2022/02/20 12:22:24;;;;;;;5.55;2.30;;;11.30;45.70;;;;;;5117339;28;20089;-38
2022/02/20 12:24:55;;;;;;;4.13;2.63;;;11.40;45.10;;;;;;5116276;28;20110;-40
2022/02/20 12:27:37;;;;;;;5.20;2.33;;;11.40;45.10;;;;;;5116510;28;20027;-38
2022/02/20 12:30:17;;;;;;;10.32;3.20;;;11.50;44.20;;;;;;5117318;28;20085;-38
2022/02/20 12:32:50;;;;;;;5.43;2.50;;;11.50;44.20;;;;;;5116817;28;20031;-40
2022/02/20 12:35:20;;;;;;;10.93;2.80;;;11.50;43.60;;;;;;5117346;28;20039;-38
2022/02/20 12:37:51;;;;;;;4.57;2.28;;;11.40;43.70;;;;;;5116766;28;20047;-39
2022/02/20 12:40:26;;;;;;;7.30;2.47;;;11.50;43.70;;;;;;5116577;28;20040;-40
2022/02/20 12:42:58;;;;;;;9.15;2.30;;;11.50;43.60;;;;;;5116681;28;20048;-40
2022/02/20 12:45:31;;;;;;;8.85;2.40;;;11.60;43.80;;;;;;5117117;28;20038;-40
2022/02/20 12:47:58;;;;;;;5.38;2.90;;;11.70;43.80;;;;;;5116623;28;20023;-39
2022/02/20 12:50:27;;;;;;;8.02;3.40;;;11.70;43.60;;;;;;5117195;28;20032;-40
2022/02/20 12:52:55;;;;;;;7.78;2.55;;;11.70;43.70;;;;;;5116783;28;20035;-39
2022/02/20 12:55:21;;;;;;;6.80;2.95;;;11.80;43.90;;;;;;5117098;28;20047;-39
2022/02/20 12:57:50;;;;;;;11.13;3.10;;;11.90;44.20;;;;;;5116896;28;20023;-38